sensor_id;sensor_type;location;lat;lon;timestamp;P1;durP1;ratioP1;P2;durP2;ratioP2
77788;SDS011;66980;44.384;0.512;2023-04-03T00:00:10;12.75;;;7.72;;
77788;SDS011;66980;44.384;0.512;2023-04-03T00:02:36;13.60;;;7.05;;
77788;SDS011;66980;44.384;0.512;2023-04-03T00:05:02;13.48;;;7.85;;
77788;SDS011;66980;44.384;0.512;2023-04-03T00:07:27;14.80;;;7.30;;
77788;SDS011;66980;44.384;0.512;2023-04-03T00:09:52;10.75;;;7.15;;
77788;SDS011;66980;44.384;0.512;2023-04-03T00:12:18;11.63;;;6.53;;
77788;SDS011;66980;44.384;0.512;2023-04-03T00:14:43;12.60;;;6.50;;
77788;SDS011;66980;44.384;0.512;2023-04-03T00:17:09;11.00;;;6.53;;
77788;SDS011;66980;44.384;0.512;2023-04-03T00:19:34;13.75;;;6.97;;
77788;SDS011;66980;44.384;0.512;2023-04-03T00:22:00;12.57;;;7.22;;
77788;SDS011;66980;44.384;0.512;2023-04-03T00:24:25;13.13;;;7.53;;
77788;SDS011;66980;44.384;0.512;2023-04-03T00:26:51;13.30;;;7.70;;
77788;SDS011;66980;44.384;0.512;2023-04-03T00:29:16;13.02;;;6.47;;
77788;SDS011;66980;44.384;0.512;2023-04-03T00:31:42;12.30;;;6.50;;
77788;SDS011;66980;44.384;0.512;2023-04-03T00:34:08;12.65;;;7.20;;
77788;SDS011;66980;44.384;0.512;2023-04-03T00:36:33;13.57;;;7.35;;
77788;SDS011;66980;44.384;0.512;2023-04-03T00:38:59;13.88;;;6.32;;
77788;SDS011;66980;44.384;0.512;2023-04-03T00:41:25;11.57;;;6.82;;
77788;SDS011;66980;44.384;0.512;2023-04-03T00:43:50;13.30;;;7.20;;
77788;SDS011;66980;44.384;0.512;2023-04-03T00:46:16;12.77;;;6.88;;
77788;SDS011;66980;44.384;0.512;2023-04-03T00:48:42;14.48;;;7.43;;
77788;SDS011;66980;44.384;0.512;2023-04-03T00:51:13;14.10;;;7.75;;
77788;SDS011;66980;44.384;0.512;2023-04-03T00:53:43;11.50;;;6.43;;
77788;SDS011;66980;44.384;0.512;2023-04-03T00:56:13;12.18;;;6.55;;
77788;SDS011;66980;44.384;0.512;2023-04-03T00:58:42;11.95;;;7.10;;
77788;SDS011;66980;44.384;0.512;2023-04-03T01:01:16;12.82;;;6.50;;
77788;SDS011;66980;44.384;0.512;2023-04-03T01:03:45;18.17;;;8.13;;
77788;SDS011;66980;44.384;0.512;2023-04-03T01:06:11;14.60;;;7.32;;
77788;SDS011;66980;44.384;0.512;2023-04-03T01:08:38;12.45;;;6.90;;
77788;SDS011;66980;44.384;0.512;2023-04-03T01:11:03;15.00;;;7.55;;
77788;SDS011;66980;44.384;0.512;2023-04-03T01:13:31;12.68;;;6.82;;
77788;SDS011;66980;44.384;0.512;2023-04-03T01:16:00;14.13;;;7.68;;
77788;SDS011;66980;44.384;0.512;2023-04-03T01:18:28;14.05;;;7.13;;
77788;SDS011;66980;44.384;0.512;2023-04-03T01:24:03;14.90;;;7.85;;
77788;SDS011;66980;44.384;0.512;2023-04-03T01:26:15;12.90;;;7.15;;
77788;SDS011;66980;44.384;0.512;2023-04-03T01:28:41;13.55;;;6.97;;
77788;SDS011;66980;44.384;0.512;2023-04-03T01:31:20;11.15;;;6.53;;
77788;SDS011;66980;44.384;0.512;2023-04-03T01:33:50;12.73;;;8.07;;
77788;SDS011;66980;44.384;0.512;2023-04-03T01:36:23;12.05;;;6.88;;
77788;SDS011;66980;44.384;0.512;2023-04-03T01:38:50;14.07;;;8.07;;
77788;SDS011;66980;44.384;0.512;2023-04-03T01:41:17;12.55;;;7.05;;
77788;SDS011;66980;44.384;0.512;2023-04-03T01:43:43;12.13;;;7.22;;
77788;SDS011;66980;44.384;0.512;2023-04-03T01:46:09;13.57;;;6.63;;
77788;SDS011;66980;44.384;0.512;2023-04-03T01:48:34;13.52;;;7.30;;
77788;SDS011;66980;44.384;0.512;2023-04-03T01:51:00;13.05;;;8.05;;
77788;SDS011;66980;44.384;0.512;2023-04-03T01:53:25;12.80;;;6.68;;
77788;SDS011;66980;44.384;0.512;2023-04-03T01:55:51;14.98;;;7.88;;
77788;SDS011;66980;44.384;0.512;2023-04-03T01:58:16;11.25;;;6.47;;
77788;SDS011;66980;44.384;0.512;2023-04-03T02:00:42;11.88;;;7.15;;
77788;SDS011;66980;44.384;0.512;2023-04-03T02:03:07;11.38;;;7.13;;
77788;SDS011;66980;44.384;0.512;2023-04-03T02:05:33;12.60;;;7.05;;
77788;SDS011;66980;44.384;0.512;2023-04-03T02:07:59;16.42;;;7.50;;
77788;SDS011;66980;44.384;0.512;2023-04-03T02:10:25;13.65;;;7.78;;
77788;SDS011;66980;44.384;0.512;2023-04-03T02:12:50;13.80;;;7.43;;
77788;SDS011;66980;44.384;0.512;2023-04-03T02:15:16;12.43;;;6.80;;
77788;SDS011;66980;44.384;0.512;2023-04-03T02:17:42;12.18;;;7.25;;
77788;SDS011;66980;44.384;0.512;2023-04-03T02:20:08;13.10;;;7.55;;
77788;SDS011;66980;44.384;0.512;2023-04-03T02:22:34;14.80;;;7.97;;
77788;SDS011;66980;44.384;0.512;2023-04-03T02:24:59;13.45;;;8.10;;
77788;SDS011;66980;44.384;0.512;2023-04-03T02:27:25;15.57;;;8.18;;
77788;SDS011;66980;44.384;0.512;2023-04-03T02:29:51;14.57;;;8.00;;
77788;SDS011;66980;44.384;0.512;2023-04-03T02:32:16;15.30;;;8.23;;
77788;SDS011;66980;44.384;0.512;2023-04-03T02:34:42;13.48;;;7.03;;
77788;SDS011;66980;44.384;0.512;2023-04-03T02:37:07;13.73;;;7.30;;
77788;SDS011;66980;44.384;0.512;2023-04-03T02:39:34;15.10;;;7.45;;
77788;SDS011;66980;44.384;0.512;2023-04-03T02:41:59;13.88;;;6.63;;
77788;SDS011;66980;44.384;0.512;2023-04-03T02:44:25;14.40;;;7.88;;
77788;SDS011;66980;44.384;0.512;2023-04-03T02:46:50;14.35;;;7.43;;
77788;SDS011;66980;44.384;0.512;2023-04-03T02:49:16;16.75;;;8.00;;
77788;SDS011;66980;44.384;0.512;2023-04-03T02:51:41;13.95;;;6.85;;
77788;SDS011;66980;44.384;0.512;2023-04-03T02:54:07;16.23;;;7.75;;
77788;SDS011;66980;44.384;0.512;2023-04-03T02:56:33;14.48;;;7.45;;
77788;SDS011;66980;44.384;0.512;2023-04-03T02:58:59;14.73;;;8.07;;
77788;SDS011;66980;44.384;0.512;2023-04-03T03:01:24;13.50;;;7.35;;
77788;SDS011;66980;44.384;0.512;2023-04-03T03:03:53;13.63;;;7.75;;
77788;SDS011;66980;44.384;0.512;2023-04-03T03:06:19;13.02;;;6.80;;
77788;SDS011;66980;44.384;0.512;2023-04-03T03:08:44;11.77;;;7.57;;
77788;SDS011;66980;44.384;0.512;2023-04-03T03:11:10;13.85;;;7.47;;
77788;SDS011;66980;44.384;0.512;2023-04-03T03:13:36;12.82;;;7.05;;
77788;SDS011;66980;44.384;0.512;2023-04-03T03:16:02;13.93;;;6.72;;
77788;SDS011;66980;44.384;0.512;2023-04-03T03:18:28;17.00;;;7.10;;
77788;SDS011;66980;44.384;0.512;2023-04-03T03:20:55;16.20;;;7.38;;
77788;SDS011;66980;44.384;0.512;2023-04-03T03:23:22;14.73;;;7.65;;
77788;SDS011;66980;44.384;0.512;2023-04-03T03:25:49;14.65;;;7.75;;
77788;SDS011;66980;44.384;0.512;2023-04-03T03:28:20;14.88;;;7.45;;
77788;SDS011;66980;44.384;0.512;2023-04-03T03:30:45;13.65;;;7.68;;
77788;SDS011;66980;44.384;0.512;2023-04-03T03:33:11;14.98;;;8.10;;
77788;SDS011;66980;44.384;0.512;2023-04-03T03:35:37;13.30;;;7.40;;
77788;SDS011;66980;44.384;0.512;2023-04-03T03:38:02;12.85;;;7.32;;
77788;SDS011;66980;44.384;0.512;2023-04-03T03:40:28;15.15;;;8.02;;
77788;SDS011;66980;44.384;0.512;2023-04-03T03:42:53;16.75;;;8.20;;
77788;SDS011;66980;44.384;0.512;2023-04-03T03:45:19;15.00;;;8.00;;
77788;SDS011;66980;44.384;0.512;2023-04-03T03:47:44;12.15;;;6.95;;
77788;SDS011;66980;44.384;0.512;2023-04-03T03:50:10;13.95;;;6.53;;
77788;SDS011;66980;44.384;0.512;2023-04-03T03:52:36;14.63;;;6.68;;
77788;SDS011;66980;44.384;0.512;2023-04-03T03:55:01;16.27;;;8.00;;
77788;SDS011;66980;44.384;0.512;2023-04-03T03:57:26;12.25;;;7.15;;
77788;SDS011;66980;44.384;0.512;2023-04-03T03:59:53;14.30;;;6.88;;
77788;SDS011;66980;44.384;0.512;2023-04-03T04:02:19;13.52;;;6.93;;
77788;SDS011;66980;44.384;0.512;2023-04-03T04:04:44;12.45;;;6.55;;
77788;SDS011;66980;44.384;0.512;2023-04-03T04:07:10;11.55;;;6.97;;
77788;SDS011;66980;44.384;0.512;2023-04-03T04:09:36;11.88;;;7.63;;
77788;SDS011;66980;44.384;0.512;2023-04-03T04:12:02;13.27;;;6.82;;
77788;SDS011;66980;44.384;0.512;2023-04-03T04:14:27;14.27;;;7.28;;
77788;SDS011;66980;44.384;0.512;2023-04-03T04:16:53;11.27;;;5.93;;
77788;SDS011;66980;44.384;0.512;2023-04-03T04:19:18;12.90;;;6.80;;
77788;SDS011;66980;44.384;0.512;2023-04-03T04:21:43;10.70;;;6.50;;
77788;SDS011;66980;44.384;0.512;2023-04-03T04:24:09;14.38;;;7.72;;
77788;SDS011;66980;44.384;0.512;2023-04-03T04:26:35;10.88;;;6.32;;
77788;SDS011;66980;44.384;0.512;2023-04-03T04:29:00;15.52;;;6.78;;
77788;SDS011;66980;44.384;0.512;2023-04-03T04:31:26;11.77;;;6.13;;
77788;SDS011;66980;44.384;0.512;2023-04-03T04:33:52;9.68;;;6.28;;
77788;SDS011;66980;44.384;0.512;2023-04-03T04:36:18;11.98;;;6.88;;
77788;SDS011;66980;44.384;0.512;2023-04-03T04:38:43;11.05;;;6.57;;
77788;SDS011;66980;44.384;0.512;2023-04-03T04:41:09;11.95;;;7.25;;
77788;SDS011;66980;44.384;0.512;2023-04-03T04:43:35;12.10;;;5.43;;
77788;SDS011;66980;44.384;0.512;2023-04-03T04:46:04;12.63;;;6.85;;
77788;SDS011;66980;44.384;0.512;2023-04-03T04:48:31;12.00;;;6.15;;
77788;SDS011;66980;44.384;0.512;2023-04-03T04:50:57;13.10;;;7.07;;
77788;SDS011;66980;44.384;0.512;2023-04-03T04:53:23;11.55;;;6.63;;
77788;SDS011;66980;44.384;0.512;2023-04-03T04:55:48;13.15;;;6.80;;
77788;SDS011;66980;44.384;0.512;2023-04-03T04:58:14;9.63;;;5.40;;
77788;SDS011;66980;44.384;0.512;2023-04-03T05:00:40;13.48;;;6.60;;
77788;SDS011;66980;44.384;0.512;2023-04-03T05:03:05;11.77;;;6.22;;
77788;SDS011;66980;44.384;0.512;2023-04-03T05:05:31;12.48;;;6.38;;
77788;SDS011;66980;44.384;0.512;2023-04-03T05:07:56;10.50;;;6.45;;
77788;SDS011;66980;44.384;0.512;2023-04-03T05:10:22;12.70;;;6.32;;
77788;SDS011;66980;44.384;0.512;2023-04-03T05:12:47;13.77;;;7.13;;
77788;SDS011;66980;44.384;0.512;2023-04-03T05:15:13;12.02;;;6.60;;
77788;SDS011;66980;44.384;0.512;2023-04-03T05:17:38;11.77;;;6.32;;
77788;SDS011;66980;44.384;0.512;2023-04-03T05:20:04;11.25;;;6.30;;
77788;SDS011;66980;44.384;0.512;2023-04-03T05:22:30;12.93;;;7.25;;
77788;SDS011;66980;44.384;0.512;2023-04-03T05:24:56;12.43;;;6.40;;
77788;SDS011;66980;44.384;0.512;2023-04-03T05:27:21;13.20;;;6.57;;
77788;SDS011;66980;44.384;0.512;2023-04-03T05:29:49;11.35;;;6.43;;
77788;SDS011;66980;44.384;0.512;2023-04-03T05:32:15;13.38;;;6.00;;
77788;SDS011;66980;44.384;0.512;2023-04-03T05:34:40;13.30;;;7.10;;
77788;SDS011;66980;44.384;0.512;2023-04-03T05:37:06;11.45;;;5.57;;
77788;SDS011;66980;44.384;0.512;2023-04-03T05:39:31;20.83;;;5.82;;
77788;SDS011;66980;44.384;0.512;2023-04-03T05:41:58;10.00;;;6.15;;
77788;SDS011;66980;44.384;0.512;2023-04-03T05:44:24;18.98;;;5.93;;
77788;SDS011;66980;44.384;0.512;2023-04-03T05:46:49;14.00;;;5.47;;
77788;SDS011;66980;44.384;0.512;2023-04-03T05:49:15;10.75;;;5.85;;
77788;SDS011;66980;44.384;0.512;2023-04-03T05:51:41;11.73;;;5.63;;
77788;SDS011;66980;44.384;0.512;2023-04-03T05:54:12;11.10;;;5.50;;
77788;SDS011;66980;44.384;0.512;2023-04-03T05:56:43;10.45;;;5.03;;
77788;SDS011;66980;44.384;0.512;2023-04-03T05:59:08;12.35;;;5.07;;
77788;SDS011;66980;44.384;0.512;2023-04-03T06:01:34;9.27;;;4.55;;
77788;SDS011;66980;44.384;0.512;2023-04-03T06:04:00;10.50;;;5.53;;
77788;SDS011;66980;44.384;0.512;2023-04-03T06:06:25;11.95;;;5.78;;
77788;SDS011;66980;44.384;0.512;2023-04-03T06:08:51;13.43;;;5.43;;
77788;SDS011;66980;44.384;0.512;2023-04-03T06:11:17;14.38;;;5.10;;
77788;SDS011;66980;44.384;0.512;2023-04-03T06:13:42;10.75;;;5.70;;
77788;SDS011;66980;44.384;0.512;2023-04-03T06:16:09;13.75;;;5.50;;
77788;SDS011;66980;44.384;0.512;2023-04-03T06:18:40;11.50;;;5.25;;
77788;SDS011;66980;44.384;0.512;2023-04-03T06:21:06;9.13;;;5.03;;
77788;SDS011;66980;44.384;0.512;2023-04-03T06:23:32;10.90;;;4.88;;
77788;SDS011;66980;44.384;0.512;2023-04-03T06:25:58;11.02;;;5.03;;
77788;SDS011;66980;44.384;0.512;2023-04-03T06:28:24;16.45;;;7.03;;
77788;SDS011;66980;44.384;0.512;2023-04-03T06:30:50;9.35;;;5.10;;
77788;SDS011;66980;44.384;0.512;2023-04-03T06:33:15;13.05;;;6.18;;
77788;SDS011;66980;44.384;0.512;2023-04-03T06:35:41;14.07;;;7.15;;
77788;SDS011;66980;44.384;0.512;2023-04-03T06:38:07;14.10;;;7.75;;
77788;SDS011;66980;44.384;0.512;2023-04-03T06:40:34;19.13;;;7.75;;
77788;SDS011;66980;44.384;0.512;2023-04-03T06:43:00;12.88;;;5.55;;
77788;SDS011;66980;44.384;0.512;2023-04-03T06:45:26;13.60;;;6.88;;
77788;SDS011;66980;44.384;0.512;2023-04-03T06:47:52;16.98;;;7.78;;
77788;SDS011;66980;44.384;0.512;2023-04-03T06:50:18;16.52;;;7.38;;
77788;SDS011;66980;44.384;0.512;2023-04-03T06:52:44;14.45;;;7.72;;
77788;SDS011;66980;44.384;0.512;2023-04-03T06:55:09;15.60;;;8.52;;
77788;SDS011;66980;44.384;0.512;2023-04-03T06:57:35;17.42;;;7.30;;
77788;SDS011;66980;44.384;0.512;2023-04-03T07:00:01;17.63;;;8.82;;
77788;SDS011;66980;44.384;0.512;2023-04-03T07:02:28;16.20;;;9.52;;
77788;SDS011;66980;44.384;0.512;2023-04-03T07:04:53;18.20;;;9.40;;
77788;SDS011;66980;44.384;0.512;2023-04-03T07:07:19;20.40;;;9.18;;
77788;SDS011;66980;44.384;0.512;2023-04-03T07:09:45;21.45;;;9.32;;
77788;SDS011;66980;44.384;0.512;2023-04-03T07:12:12;18.60;;;8.35;;
77788;SDS011;66980;44.384;0.512;2023-04-03T07:14:38;18.55;;;9.50;;
77788;SDS011;66980;44.384;0.512;2023-04-03T07:17:04;19.88;;;8.55;;
77788;SDS011;66980;44.384;0.512;2023-04-03T07:19:29;18.88;;;8.45;;
77788;SDS011;66980;44.384;0.512;2023-04-03T07:21:56;20.17;;;8.25;;
77788;SDS011;66980;44.384;0.512;2023-04-03T07:24:21;17.23;;;9.15;;
77788;SDS011;66980;44.384;0.512;2023-04-03T07:26:50;17.73;;;8.80;;
77788;SDS011;66980;44.384;0.512;2023-04-03T07:29:17;14.45;;;7.60;;
77788;SDS011;66980;44.384;0.512;2023-04-03T07:31:42;19.90;;;9.05;;
77788;SDS011;66980;44.384;0.512;2023-04-03T07:34:09;18.48;;;8.07;;
77788;SDS011;66980;44.384;0.512;2023-04-03T07:36:35;18.60;;;8.90;;
77788;SDS011;66980;44.384;0.512;2023-04-03T07:39:01;20.65;;;8.90;;
77788;SDS011;66980;44.384;0.512;2023-04-03T07:41:27;18.67;;;9.32;;
77788;SDS011;66980;44.384;0.512;2023-04-03T07:43:53;19.63;;;10.05;;
77788;SDS011;66980;44.384;0.512;2023-04-03T07:46:20;17.58;;;9.90;;
77788;SDS011;66980;44.384;0.512;2023-04-03T07:48:45;18.58;;;8.40;;
77788;SDS011;66980;44.384;0.512;2023-04-03T07:51:11;17.88;;;8.75;;
77788;SDS011;66980;44.384;0.512;2023-04-03T07:53:37;14.15;;;7.55;;
77788;SDS011;66980;44.384;0.512;2023-04-03T07:56:03;20.08;;;7.93;;
77788;SDS011;66980;44.384;0.512;2023-04-03T07:58:29;16.40;;;7.75;;
77788;SDS011;66980;44.384;0.512;2023-04-03T08:00:54;14.40;;;7.97;;
77788;SDS011;66980;44.384;0.512;2023-04-03T08:03:21;17.65;;;8.82;;
77788;SDS011;66980;44.384;0.512;2023-04-03T08:05:47;16.92;;;7.90;;
77788;SDS011;66980;44.384;0.512;2023-04-03T08:08:15;13.30;;;6.78;;
77788;SDS011;66980;44.384;0.512;2023-04-03T08:10:43;12.02;;;7.35;;
77788;SDS011;66980;44.384;0.512;2023-04-03T08:13:09;15.05;;;7.65;;
77788;SDS011;66980;44.384;0.512;2023-04-03T08:15:35;12.68;;;6.93;;
77788;SDS011;66980;44.384;0.512;2023-04-03T08:18:03;12.80;;;7.47;;
77788;SDS011;66980;44.384;0.512;2023-04-03T08:20:28;15.18;;;7.50;;
77788;SDS011;66980;44.384;0.512;2023-04-03T08:22:54;11.65;;;6.47;;
77788;SDS011;66980;44.384;0.512;2023-04-03T08:25:20;13.50;;;7.28;;
77788;SDS011;66980;44.384;0.512;2023-04-03T08:27:45;11.02;;;6.75;;
77788;SDS011;66980;44.384;0.512;2023-04-03T08:30:11;13.52;;;6.78;;
77788;SDS011;66980;44.384;0.512;2023-04-03T08:32:37;15.40;;;7.53;;
77788;SDS011;66980;44.384;0.512;2023-04-03T08:35:03;15.30;;;7.13;;
77788;SDS011;66980;44.384;0.512;2023-04-03T08:37:29;15.05;;;7.00;;
77788;SDS011;66980;44.384;0.512;2023-04-03T08:39:55;14.68;;;6.93;;
77788;SDS011;66980;44.384;0.512;2023-04-03T08:45:22;18.13;;;8.25;;
77788;SDS011;66980;44.384;0.512;2023-04-03T08:47:59;15.50;;;8.35;;
77788;SDS011;66980;44.384;0.512;2023-04-03T08:50:45;22.70;;;8.73;;
77788;SDS011;66980;44.384;0.512;2023-04-03T08:53:15;20.58;;;7.80;;
77788;SDS011;66980;44.384;0.512;2023-04-03T08:55:46;14.75;;;7.88;;
77788;SDS011;66980;44.384;0.512;2023-04-03T08:58:18;16.67;;;8.98;;
77788;SDS011;66980;44.384;0.512;2023-04-03T09:03:48;15.75;;;6.90;;
77788;SDS011;66980;44.384;0.512;2023-04-03T09:17:04;12.68;;;6.78;;
77788;SDS011;66980;44.384;0.512;2023-04-03T09:22:38;16.63;;;7.32;;
77788;SDS011;66980;44.384;0.512;2023-04-03T09:25:23;14.18;;;6.97;;
77788;SDS011;66980;44.384;0.512;2023-04-03T09:27:52;14.07;;;6.70;;
77788;SDS011;66980;44.384;0.512;2023-04-03T09:30:22;13.75;;;6.43;;
77788;SDS011;66980;44.384;0.512;2023-04-03T09:32:50;10.77;;;6.15;;
77788;SDS011;66980;44.384;0.512;2023-04-03T09:35:28;9.63;;;6.00;;
77788;SDS011;66980;44.384;0.512;2023-04-03T09:42:58;11.65;;;5.03;;
77788;SDS011;66980;44.384;0.512;2023-04-03T09:45:27;8.73;;;5.10;;
77788;SDS011;66980;44.384;0.512;2023-04-03T09:50:41;11.02;;;6.35;;
77788;SDS011;66980;44.384;0.512;2023-04-03T09:56:09;9.68;;;5.38;;
77788;SDS011;66980;44.384;0.512;2023-04-03T10:06:33;18.45;;;8.88;;
77788;SDS011;66980;44.384;0.512;2023-04-03T10:09:03;22.85;;;9.30;;
77788;SDS011;66980;44.384;0.512;2023-04-03T10:11:31;17.88;;;10.10;;
77788;SDS011;66980;44.384;0.512;2023-04-03T10:14:00;24.90;;;10.10;;
77788;SDS011;66980;44.384;0.512;2023-04-03T10:16:37;20.10;;;9.60;;
77788;SDS011;66980;44.384;0.512;2023-04-03T10:24:36;23.55;;;12.00;;
77788;SDS011;66980;44.384;0.512;2023-04-03T10:34:44;23.83;;;10.60;;
77788;SDS011;66980;44.384;0.512;2023-04-03T10:37:18;22.60;;;10.00;;
77788;SDS011;66980;44.384;0.512;2023-04-03T10:39:59;20.55;;;10.27;;
77788;SDS011;66980;44.384;0.512;2023-04-03T10:45:08;23.88;;;9.73;;
77788;SDS011;66980;44.384;0.512;2023-04-03T10:56:31;22.75;;;9.23;;
77788;SDS011;66980;44.384;0.512;2023-04-03T10:59:21;18.60;;;9.10;;
77788;SDS011;66980;44.384;0.512;2023-04-03T11:04:36;17.23;;;7.88;;
77788;SDS011;66980;44.384;0.512;2023-04-03T11:07:10;17.75;;;8.27;;
77788;SDS011;66980;44.384;0.512;2023-04-03T11:09:48;16.27;;;7.22;;
77788;SDS011;66980;44.384;0.512;2023-04-03T11:12:26;12.32;;;7.45;;
77788;SDS011;66980;44.384;0.512;2023-04-03T11:15:05;20.63;;;7.63;;
77788;SDS011;66980;44.384;0.512;2023-04-03T11:17:42;17.83;;;6.88;;
77788;SDS011;66980;44.384;0.512;2023-04-03T11:20:29;22.48;;;7.38;;
77788;SDS011;66980;44.384;0.512;2023-04-03T11:25:56;17.35;;;6.93;;
77788;SDS011;66980;44.384;0.512;2023-04-03T11:28:36;14.32;;;7.50;;
77788;SDS011;66980;44.384;0.512;2023-04-03T11:34:00;14.13;;;6.63;;
77788;SDS011;66980;44.384;0.512;2023-04-03T11:36:33;14.48;;;5.88;;
77788;SDS011;66980;44.384;0.512;2023-04-03T11:39:10;14.32;;;7.53;;
77788;SDS011;66980;44.384;0.512;2023-04-03T11:41:50;14.05;;;6.63;;
77788;SDS011;66980;44.384;0.512;2023-04-03T11:44:35;10.55;;;6.00;;
77788;SDS011;66980;44.384;0.512;2023-04-03T11:47:03;13.68;;;5.75;;
77788;SDS011;66980;44.384;0.512;2023-04-03T11:52:39;10.63;;;5.47;;
77788;SDS011;66980;44.384;0.512;2023-04-03T11:55:41;14.40;;;6.43;;
77788;SDS011;66980;44.384;0.512;2023-04-03T12:16:05;12.23;;;6.03;;
77788;SDS011;66980;44.384;0.512;2023-04-03T12:24:15;9.45;;;5.35;;
77788;SDS011;66980;44.384;0.512;2023-04-03T12:35:24;12.13;;;5.40;;
77788;SDS011;66980;44.384;0.512;2023-04-03T12:48:33;11.30;;;4.60;;
77788;SDS011;66980;44.384;0.512;2023-04-03T12:51:04;8.23;;;4.50;;
77788;SDS011;66980;44.384;0.512;2023-04-03T12:53:34;10.00;;;4.47;;
77788;SDS011;66980;44.384;0.512;2023-04-03T12:58:46;7.60;;;3.72;;
77788;SDS011;66980;44.384;0.512;2023-04-03T13:01:13;9.77;;;4.00;;
77788;SDS011;66980;44.384;0.512;2023-04-03T13:03:44;10.95;;;5.00;;
77788;SDS011;66980;44.384;0.512;2023-04-03T13:08:47;5.70;;;3.53;;
77788;SDS011;66980;44.384;0.512;2023-04-03T13:11:14;9.77;;;4.40;;
77788;SDS011;66980;44.384;0.512;2023-04-03T13:13:53;7.88;;;3.90;;
77788;SDS011;66980;44.384;0.512;2023-04-03T13:16:20;7.75;;;3.67;;
77788;SDS011;66980;44.384;0.512;2023-04-03T13:18:50;5.63;;;3.38;;
77788;SDS011;66980;44.384;0.512;2023-04-03T13:21:18;5.30;;;3.17;;
77788;SDS011;66980;44.384;0.512;2023-04-03T13:23:48;7.78;;;3.85;;
77788;SDS011;66980;44.384;0.512;2023-04-03T13:26:18;5.18;;;3.58;;
77788;SDS011;66980;44.384;0.512;2023-04-03T13:28:45;7.07;;;3.80;;
77788;SDS011;66980;44.384;0.512;2023-04-03T13:33:39;5.55;;;3.55;;
77788;SDS011;66980;44.384;0.512;2023-04-03T13:36:26;8.82;;;3.97;;
77788;SDS011;66980;44.384;0.512;2023-04-03T13:39:04;8.73;;;4.53;;
77788;SDS011;66980;44.384;0.512;2023-04-03T13:41:36;6.10;;;2.95;;
77788;SDS011;66980;44.384;0.512;2023-04-03T13:46:48;8.00;;;3.72;;
77788;SDS011;66980;44.384;0.512;2023-04-03T13:49:22;6.00;;;3.72;;
77788;SDS011;66980;44.384;0.512;2023-04-03T13:51:52;6.25;;;3.10;;
77788;SDS011;66980;44.384;0.512;2023-04-03T13:54:25;3.78;;;3.13;;
77788;SDS011;66980;44.384;0.512;2023-04-03T13:56:57;5.53;;;3.08;;
77788;SDS011;66980;44.384;0.512;2023-04-03T13:59:28;4.35;;;2.90;;
77788;SDS011;66980;44.384;0.512;2023-04-03T14:04:28;4.90;;;2.80;;
77788;SDS011;66980;44.384;0.512;2023-04-03T14:06:54;7.15;;;3.35;;
77788;SDS011;66980;44.384;0.512;2023-04-03T14:09:20;4.38;;;3.17;;
77788;SDS011;66980;44.384;0.512;2023-04-03T14:11:48;6.13;;;2.88;;
77788;SDS011;66980;44.384;0.512;2023-04-03T14:14:17;6.60;;;3.25;;
77788;SDS011;66980;44.384;0.512;2023-04-03T14:16:47;6.80;;;2.92;;
77788;SDS011;66980;44.384;0.512;2023-04-03T14:21:45;6.93;;;2.63;;
77788;SDS011;66980;44.384;0.512;2023-04-03T14:24:10;3.80;;;2.30;;
77788;SDS011;66980;44.384;0.512;2023-04-03T14:26:36;6.40;;;2.78;;
77788;SDS011;66980;44.384;0.512;2023-04-03T14:29:02;5.20;;;2.60;;
77788;SDS011;66980;44.384;0.512;2023-04-03T14:31:27;5.55;;;2.65;;
77788;SDS011;66980;44.384;0.512;2023-04-03T14:33:53;4.72;;;2.40;;
77788;SDS011;66980;44.384;0.512;2023-04-03T14:36:22;3.85;;;2.28;;
77788;SDS011;66980;44.384;0.512;2023-04-03T14:38:52;4.40;;;3.25;;
77788;SDS011;66980;44.384;0.512;2023-04-03T14:41:22;6.35;;;2.45;;
77788;SDS011;66980;44.384;0.512;2023-04-03T14:43:49;3.35;;;2.38;;
77788;SDS011;66980;44.384;0.512;2023-04-03T14:46:37;4.38;;;2.20;;
77788;SDS011;66980;44.384;0.512;2023-04-03T14:49:03;4.93;;;2.45;;
77788;SDS011;66980;44.384;0.512;2023-04-03T14:51:37;8.00;;;2.33;;
77788;SDS011;66980;44.384;0.512;2023-04-03T14:54:03;4.97;;;2.72;;
77788;SDS011;66980;44.384;0.512;2023-04-03T14:56:30;10.02;;;2.65;;
77788;SDS011;66980;44.384;0.512;2023-04-03T14:58:57;4.38;;;2.15;;
77788;SDS011;66980;44.384;0.512;2023-04-03T15:01:26;7.15;;;2.83;;
77788;SDS011;66980;44.384;0.512;2023-04-03T15:03:53;5.68;;;2.42;;
77788;SDS011;66980;44.384;0.512;2023-04-03T15:06:18;8.02;;;2.53;;
77788;SDS011;66980;44.384;0.512;2023-04-03T15:08:45;5.85;;;2.10;;
77788;SDS011;66980;44.384;0.512;2023-04-03T15:11:12;5.95;;;3.13;;
77788;SDS011;66980;44.384;0.512;2023-04-03T15:13:38;4.15;;;1.63;;
77788;SDS011;66980;44.384;0.512;2023-04-03T15:16:04;7.80;;;1.52;;
77788;SDS011;66980;44.384;0.512;2023-04-03T15:18:32;5.95;;;1.55;;
77788;SDS011;66980;44.384;0.512;2023-04-03T15:21:02;4.20;;;1.52;;
77788;SDS011;66980;44.384;0.512;2023-04-03T15:23:28;9.30;;;1.42;;
77788;SDS011;66980;44.384;0.512;2023-04-03T15:25:55;2.75;;;1.52;;
77788;SDS011;66980;44.384;0.512;2023-04-03T15:28:31;3.83;;;1.50;;
77788;SDS011;66980;44.384;0.512;2023-04-03T15:31:00;3.88;;;1.52;;
77788;SDS011;66980;44.384;0.512;2023-04-03T15:33:26;5.97;;;1.33;;
77788;SDS011;66980;44.384;0.512;2023-04-03T15:35:52;2.15;;;1.27;;
77788;SDS011;66980;44.384;0.512;2023-04-03T15:38:18;1.80;;;1.05;;
77788;SDS011;66980;44.384;0.512;2023-04-03T15:40:44;1.45;;;1.27;;
77788;SDS011;66980;44.384;0.512;2023-04-03T15:43:12;4.00;;;1.20;;
77788;SDS011;66980;44.384;0.512;2023-04-03T15:45:37;2.03;;;1.42;;
77788;SDS011;66980;44.384;0.512;2023-04-03T15:48:03;1.50;;;1.20;;
77788;SDS011;66980;44.384;0.512;2023-04-03T15:50:31;2.50;;;1.33;;
77788;SDS011;66980;44.384;0.512;2023-04-03T15:52:57;4.03;;;1.63;;
77788;SDS011;66980;44.384;0.512;2023-04-03T15:55:26;1.90;;;1.50;;
77788;SDS011;66980;44.384;0.512;2023-04-03T15:57:56;3.72;;;1.33;;
77788;SDS011;66980;44.384;0.512;2023-04-03T16:00:23;3.25;;;1.25;;
77788;SDS011;66980;44.384;0.512;2023-04-03T16:02:53;2.83;;;1.30;;
77788;SDS011;66980;44.384;0.512;2023-04-03T16:07:48;5.95;;;1.17;;
77788;SDS011;66980;44.384;0.512;2023-04-03T16:10:14;2.38;;;1.70;;
77788;SDS011;66980;44.384;0.512;2023-04-03T16:12:41;3.30;;;1.25;;
77788;SDS011;66980;44.384;0.512;2023-04-03T16:15:07;2.85;;;1.63;;
77788;SDS011;66980;44.384;0.512;2023-04-03T16:17:33;2.92;;;2.60;;
77788;SDS011;66980;44.384;0.512;2023-04-03T16:22:26;2.75;;;1.48;;
77788;SDS011;66980;44.384;0.512;2023-04-03T16:24:53;2.00;;;1.70;;
77788;SDS011;66980;44.384;0.512;2023-04-03T16:27:19;2.45;;;2.08;;
77788;SDS011;66980;44.384;0.512;2023-04-03T16:29:45;3.38;;;1.38;;
77788;SDS011;66980;44.384;0.512;2023-04-03T16:32:11;4.10;;;2.20;;
77788;SDS011;66980;44.384;0.512;2023-04-03T16:34:38;2.00;;;1.33;;
77788;SDS011;66980;44.384;0.512;2023-04-03T16:37:05;4.03;;;1.27;;
77788;SDS011;66980;44.384;0.512;2023-04-03T16:39:33;1.88;;;1.48;;
77788;SDS011;66980;44.384;0.512;2023-04-03T16:41:59;1.83;;;1.45;;
77788;SDS011;66980;44.384;0.512;2023-04-03T16:44:25;2.78;;;1.20;;
77788;SDS011;66980;44.384;0.512;2023-04-03T16:46:51;2.45;;;1.17;;
77788;SDS011;66980;44.384;0.512;2023-04-03T16:49:16;2.28;;;1.27;;
77788;SDS011;66980;44.384;0.512;2023-04-03T16:51:42;3.60;;;2.22;;
77788;SDS011;66980;44.384;0.512;2023-04-03T16:54:08;5.18;;;2.92;;
77788;SDS011;66980;44.384;0.512;2023-04-03T16:56:35;5.80;;;2.88;;
77788;SDS011;66980;44.384;0.512;2023-04-03T16:59:01;3.53;;;2.45;;
77788;SDS011;66980;44.384;0.512;2023-04-03T17:01:27;6.88;;;3.42;;